Time;durP1;ratioP1;P1;durP2;ratioP2;P2;SDS_P1;SDS_P2;PMS_P1;PMS_P2;Temp;Humidity;BMP_temperature;BMP_pressure;BME280_temperature;BME280_humidity;BME280_pressure;Samples;Min_cycle;Max_cycle;Signal;HPM_P1;HPM_P2
2022/11/13 07:06:23;;;;;;;10.30;9.35;;;;;;;7.03;87.28;102171.97;5266110;28;20404;-68
2022/11/13 07:08:56;;;;;;;10.05;9.05;;;;;;;6.96;87.21;102177.56;5258722;28;20079;-69
2022/11/13 07:11:27;;;;;;;10.70;9.10;;;;;;;6.97;88.22;102179.25;5259776;28;20496;-68
2022/11/13 07:13:59;;;;;;;8.80;8.00;;;;;;;6.97;87.64;102176.47;5258269;28;20025;-69
2022/11/13 07:16:30;;;;;;;10.45;8.85;;;;;;;7.06;87.79;102173.41;5259485;28;20031;-69
2022/11/13 07:19:02;;;;;;;9.20;8.30;;;;;;;7.07;87.72;102172.34;5257881;28;20102;-68
2022/11/13 07:21:33;;;;;;;10.05;9.15;;;;;;;7.10;87.92;102172.69;5258032;28;20043;-69
2022/11/13 07:24:10;;;;;;;8.85;8.05;;;;;;;7.09;88.58;102171.03;5259093;28;20435;-69
2022/11/13 07:26:41;;;;;;;9.52;8.63;;;;;;;6.94;88.25;102171.44;5266239;28;20025;-69
2022/11/13 07:29:16;;;;;;;11.45;8.50;;;;;;;7.09;88.50;102167.44;5269903;28;20028;-69
2022/11/13 07:31:47;;;;;;;9.35;8.35;;;;;;;7.16;88.42;102166.25;5264279;28;20039;-70
2022/11/13 07:34:18;;;;;;;11.23;8.80;;;;;;;7.21;87.96;102162.78;5278382;28;20375;-70
2022/11/13 07:36:50;;;;;;;11.25;8.70;;;;;;;7.22;87.26;102158.94;5276423;28;20040;-70
2022/11/13 07:39:21;;;;;;;11.77;8.93;;;;;;;7.25;87.42;102169.50;5278091;28;20037;-70
2022/11/13 07:41:52;;;;;;;10.15;9.15;;;;;;;7.11;87.86;102168.88;5278679;28;20024;-70
2022/11/13 07:44:24;;;;;;;9.63;8.63;;;;;;;7.06;87.72;102170.66;5276182;28;20097;-71
2022/11/13 07:46:55;;;;;;;11.88;8.90;;;;;;;7.01;87.90;102162.25;5257721;28;20116;-69
2022/11/13 07:49:26;;;;;;;9.88;8.88;;;;;;;6.94;87.82;102168.69;5257881;28;20063;-71
2022/11/13 07:51:58;;;;;;;12.52;11.27;;;;;;;7.09;88.79;102159.16;5258083;28;20021;-72
2022/11/13 07:54:32;;;;;;;12.95;11.65;;;;;;;7.23;88.38;102157.84;5262493;28;20031;-72
2022/11/13 07:57:10;;;;;;;11.20;10.02;;;;;;;7.29;88.80;102159.69;5276153;28;20078;-72
2022/11/13 07:59:48;;;;;;;12.20;9.98;;;;;;;7.45;88.15;102155.41;5278581;28;20017;-69
2022/11/13 08:02:19;;;;;;;10.35;8.90;;;;;;;7.39;88.31;102156.38;5267711;28;20064;-70
2022/11/13 08:04:53;;;;;;;9.45;8.55;;;;;;;7.46;87.49;102156.25;5257146;28;20496;-69
2022/11/13 08:07:24;;;;;;;9.98;8.98;;;;;;;7.45;87.70;102157.34;5258426;28;20037;-71
2022/11/13 08:09:56;;;;;;;10.52;8.77;;;;;;;7.56;88.05;102164.78;5256960;28;20139;-73
2022/11/13 08:12:30;;;;;;;10.38;9.48;;;;;;;7.62;87.75;102153.66;5257952;28;20100;-71
2022/11/13 08:15:01;;;;;;;9.65;8.70;;;;;;;7.73;87.85;102164.94;5274878;28;20029;-71
2022/11/13 08:17:33;;;;;;;10.32;8.75;;;;;;;7.78;87.02;102154.84;5250786;28;20040;-71
2022/11/13 08:20:05;;;;;;;9.52;8.52;;;;;;;7.82;87.18;102146.91;5258729;28;20090;-71
2022/11/13 08:22:37;;;;;;;9.57;8.65;;;;;;;7.99;86.56;102147.06;5263399;28;20103;-71
2022/11/13 08:25:08;;;;;;;9.48;8.48;;;;;;;8.07;86.25;102149.44;5263827;28;20029;-71
2022/11/13 08:27:39;;;;;;;9.27;7.93;;;;;;;8.17;86.09;102157.97;5248770;28;20464;-71
2022/11/13 08:30:18;;;;;;;8.27;7.50;;;;;;;8.24;85.15;102144.88;5243220;28;20125;-70
2022/11/13 08:32:49;;;;;;;8.13;7.38;;;;;;;8.20;84.96;102149.19;5243031;28;20025;-70
2022/11/13 08:35:23;;;;;;;8.75;7.95;;;;;;;8.28;84.21;102148.84;5237724;28;20032;-70
2022/11/13 08:38:06;;;;;;;9.15;8.30;;;;;;;8.41;83.83;102147.75;5258136;28;20044;-71
2022/11/13 08:40:37;;;;;;;8.25;7.45;;;;;;;8.45;83.92;102137.06;5263880;28;20365;-70
2022/11/13 08:43:09;;;;;;;10.35;7.43;;;;;;;8.49;83.42;102141.03;5263575;28;20032;-71
2022/11/13 08:45:40;;;;;;;8.98;8.07;;;;;;;8.54;83.77;102134.72;5262307;28;20090;-71
2022/11/13 08:48:12;;;;;;;9.05;8.23;;;;;;;8.60;84.14;102136.53;5263933;28;20028;-71
2022/11/13 08:50:54;;;;;;;9.40;8.30;;;;;;;8.63;83.63;102142.41;5263419;28;20021;-71
2022/11/13 08:53:25;;;;;;;8.95;8.15;;;;;;;8.66;83.11;102141.06;5262719;28;20158;-70
2022/11/13 08:56:00;;;;;;;8.95;8.15;;;;;;;8.71;83.27;102133.72;5261246;28;20037;-72
2022/11/13 08:58:32;;;;;;;8.38;7.63;;;;;;;8.75;83.01;102136.00;5263440;28;20024;-70
2022/11/13 09:01:03;;;;;;;8.25;7.55;;;;;;;8.78;83.14;102138.28;5255849;28;20334;-71
2022/11/13 09:03:37;;;;;;;8.60;7.80;;;;;;;8.79;82.71;102137.19;5243502;28;20021;-69
2022/11/13 09:06:08;;;;;;;10.50;9.50;;;;;;;8.88;82.66;102135.72;5257782;28;20080;-72
2022/11/13 09:08:42;;;;;;;8.70;7.90;;;;;;;8.89;82.59;102137.38;5264392;28;20037;-70
2022/11/13 09:11:13;;;;;;;8.30;7.60;;;;;;;8.85;82.79;102133.44;5243223;28;20021;-70
2022/11/13 09:13:45;;;;;;;8.75;7.95;;;;;;;8.90;82.31;102134.38;5240591;28;20029;-70
2022/11/13 09:16:16;;;;;;;9.30;8.32;;;;;;;8.99;82.16;102128.44;5240797;28;20034;-71
2022/11/13 09:18:51;;;;;;;9.02;8.13;;;;;;;9.04;81.86;102123.84;5245090;28;20479;-71
2022/11/13 09:21:23;;;;;;;7.57;6.90;;;;;;;9.12;81.85;102120.66;5249498;28;20602;-71
2022/11/13 09:23:54;;;;;;;10.55;9.32;;;;;;;9.10;81.56;102117.31;5248834;28;20049;-71
2022/11/13 09:26:25;;;;;;;8.45;7.65;;;;;;;9.25;81.51;102110.38;5245648;28;20108;-71
2022/11/13 09:29:04;;;;;;;8.88;7.63;;;;;;;9.17;81.07;102114.38;5240685;28;20133;-70
2022/11/13 09:31:37;;;;;;;8.52;7.60;;;;;;;9.25;80.90;102113.13;5241140;28;20049;-70
2022/11/13 09:34:08;;;;;;;10.68;8.32;;;;;;;9.34;81.00;102122.72;5243921;28;20022;-70
2022/11/13 09:36:39;;;;;;;9.00;7.82;;;;;;;9.38;80.60;102110.03;5242770;28;20044;-70
2022/11/13 09:39:11;;;;;;;8.93;8.05;;;;;;;9.54;80.83;102120.28;5241856;28;20025;-70
2022/11/13 09:41:48;;;;;;;9.25;7.53;;;;;;;9.52;79.25;102111.41;5242019;28;20492;-71
2022/11/13 09:44:35;;;;;;;11.75;8.95;;;;;;;9.61;79.38;102117.34;5260931;28;20074;-69
2022/11/13 09:47:18;;;;;;;7.55;6.90;;;;;;;9.67;79.46;102115.50;5262686;28;20470;-72
2022/11/13 09:49:57;;;;;;;9.05;8.15;;;;;;;9.77;78.92;102115.69;5262858;28;20066;-73
2022/11/13 09:52:37;;;;;;;52.30;45.92;;;;;;;9.94;82.54;102113.69;5262601;28;20428;-72
2022/11/13 09:55:14;;;;;;;11.85;10.68;;;;;;;10.09;78.85;102120.56;5261737;28;20032;-73
2022/11/13 09:58:10;;;;;;;7.55;6.90;;;;;;;10.12;77.17;102115.34;5260075;28;20103;-73
2022/11/13 10:00:41;;;;;;;9.37;8.07;;;;;;;10.17;77.66;102106.25;5257101;28;20140;-73
2022/11/13 10:03:30;;;;;;;8.18;7.38;;;;;;;10.19;75.68;102109.63;5240794;28;20037;-73
2022/11/13 10:06:36;;;;;;;7.93;7.00;;;;;;;10.27;75.08;102114.72;5240883;28;20068;-73
2022/11/13 10:09:52;;;;;;;7.00;6.38;;;;;;;10.33;75.59;102105.41;5239772;28;20061;-71
2022/11/13 10:12:29;;;;;;;7.97;7.03;;;;;;;10.44;75.60;102107.22;5239510;28;20430;-71
2022/11/13 10:15:03;;;;;;;7.82;7.07;;;;;;;10.44;74.35;102107.22;5238169;28;20064;-70
2022/11/13 10:17:51;;;;;;;9.23;7.00;;;;;;;10.52;73.56;102108.69;5242495;28;20020;-71
2022/11/13 10:20:43;;;;;;;7.82;7.13;;;;;;;10.57;73.43;102107.94;5258957;28;20079;-70
2022/11/13 10:23:19;;;;;;;8.18;6.55;;;;;;;10.61;72.92;102103.56;5238809;28;20032;-70
2022/11/13 10:25:55;;;;;;;9.93;8.93;;;;;;;10.71;73.02;102098.13;5243972;28;20059;-69
2022/11/13 10:28:27;;;;;;;9.13;8.23;;;;;;;10.70;72.37;102104.75;5249482;28;20376;-70
2022/11/13 10:30:58;;;;;;;7.10;6.50;;;;;;;10.75;71.93;102090.94;5251893;28;20056;-70
2022/11/13 10:33:29;;;;;;;7.38;6.00;;;;;;;10.79;71.78;102091.25;5241608;28;20061;-70
2022/11/13 10:36:13;;;;;;;7.88;7.07;;;;;;;10.91;71.20;102083.59;5244675;28;20036;-70
2022/11/13 10:39:08;;;;;;;7.57;6.78;;;;;;;10.94;70.70;102087.78;5239517;28;20374;-69
2022/11/13 10:41:50;;;;;;;6.97;6.28;;;;;;;10.95;70.05;102081.16;5254334;28;20107;-70
2022/11/13 10:44:28;;;;;;;8.27;7.47;;;;;;;11.02;70.08;102076.22;5252672;28;20392;-70
2022/11/13 10:47:12;;;;;;;8.68;7.15;;;;;;;11.15;70.76;102078.56;5252610;28;20388;-70
2022/11/13 10:49:43;;;;;;;7.65;6.95;;;;;;;11.21;71.12;102066.41;5260267;28;20107;-71
2022/11/13 10:52:19;;;;;;;18.27;16.38;;;;;;;11.25;69.74;102062.00;5262970;28;20100;-71
2022/11/13 10:55:11;;;;;;;8.45;7.65;;;;;;;11.33;68.98;102057.91;5264706;28;20027;-70
2022/11/13 10:57:54;;;;;;;7.82;7.07;;;;;;;11.46;70.02;102048.28;5261154;28;20025;-71
2022/11/13 11:00:37;;;;;;;8.75;7.82;;;;;;;11.60;71.18;102051.41;5263926;28;20076;-71
2022/11/13 11:03:20;;;;;;;7.05;5.95;;;;;;;11.69;70.06;102045.09;5261225;28;20010;-71
2022/11/13 11:05:55;;;;;;;7.03;6.18;;;;;;;11.77;68.80;102040.16;5259277;28;20435;-71
2022/11/13 11:08:34;;;;;;;8.18;6.47;;;;;;;11.73;69.64;102034.28;5264550;28;20060;-71
2022/11/13 11:14:16;;;;;;;9.85;8.40;;;;;;;11.92;67.59;102031.94;5261389;28;20037;-70
2022/11/13 11:16:50;;;;;;;6.83;6.23;;;;;;;11.95;67.47;102034.16;5261089;28;20150;-70
2022/11/13 11:19:31;;;;;;;9.25;7.38;;;;;;;12.02;67.68;102043.09;5262261;28;20268;-70
2022/11/13 11:22:30;;;;;;;7.40;6.63;;;;;;;12.17;67.40;102047.91;5260930;28;20023;-71
2022/11/13 11:25:05;;;;;;;6.75;6.15;;;;;;;12.18;66.48;102033.72;5260976;28;20148;-72
2022/11/13 11:27:49;;;;;;;8.63;6.43;;;;;;;12.24;66.73;102037.34;5259540;28;20029;-72
2022/11/13 11:30:22;;;;;;;8.50;6.15;;;;;;;12.27;66.13;102034.03;5262243;28;20103;-71
2022/11/13 11:33:07;;;;;;;7.05;6.38;;;;;;;12.37;66.03;102027.66;5265981;28;20103;-71
2022/11/13 11:35:51;;;;;;;6.75;6.05;;;;;;;12.40;64.54;102027.97;5256355;28;20541;-72
2022/11/13 11:38:41;;;;;;;6.85;6.20;;;;;;;12.54;65.44;102010.75;5262795;28;20017;-71
2022/11/13 11:41:16;;;;;;;7.28;6.57;;;;;;;12.69;64.04;102013.56;5258150;28;20396;-70
2022/11/13 11:44:04;;;;;;;7.47;6.13;;;;;;;12.73;64.98;102008.25;5262841;28;20391;-70
2022/11/13 11:46:35;;;;;;;6.65;6.00;;;;;;;12.77;63.55;102001.03;5263306;28;20032;-70
2022/11/13 11:49:09;;;;;;;8.02;6.82;;;;;;;12.86;63.24;101996.63;5261020;28;20098;-70
2022/11/13 11:51:50;;;;;;;9.48;6.40;;;;;;;12.91;63.85;101979.91;5263563;28;20021;-70
2022/11/13 11:54:41;;;;;;;6.20;5.60;;;;;;;12.99;64.23;101978.53;5265718;28;20036;-71
2022/11/13 11:57:42;;;;;;;8.85;8.05;;;;;;;13.08;64.63;101970.44;5265191;28;20444;-70
2022/11/13 12:00:17;;;;;;;6.68;5.90;;;;;;;13.12;63.50;101963.19;5254501;28;20503;-71
2022/11/13 12:03:25;;;;;;;7.80;6.78;;;;;;;13.20;63.03;101968.19;5268217;28;20413;-70
2022/11/13 12:06:38;;;;;;;7.80;6.10;;;;;;;13.25;63.17;101966.25;5265970;28;20083;-70
2022/11/13 12:09:16;;;;;;;7.85;6.18;;;;;;;13.31;63.30;101964.31;5264521;28;20051;-71
2022/11/13 12:11:58;;;;;;;7.47;6.35;;;;;;;13.34;63.45;101966.53;5269475;28;20037;-71
2022/11/13 12:14:58;;;;;;;8.50;7.72;;;;;;;13.40;62.47;101967.38;5266134;28;20055;-70
2022/11/13 12:17:35;;;;;;;7.15;6.43;;;;;;;13.47;62.64;101952.03;5261528;28;20048;-70
2022/11/13 12:20:47;;;;;;;6.88;6.05;;;;;;;13.52;63.15;101953.13;5264434;28;20025;-70
2022/11/13 12:23:44;;;;;;;7.10;6.13;;;;;;;13.62;62.67;101945.56;5256593;28;20060;-71
2022/11/13 12:26:44;;;;;;;16.55;12.98;;;;;;;13.63;62.12;101947.25;5266533;28;20028;-72
2022/11/13 12:29:42;;;;;;;7.65;6.07;;;;;;;13.68;61.37;101940.81;5265087;28;20508;-68
2022/11/13 12:32:38;;;;;;;18.33;16.42;;;;;;;13.68;61.68;101930.50;5259771;28;20383;-70
2022/11/13 12:35:17;;;;;;;10.02;9.05;;;;;;;13.72;61.05;101927.97;5263699;28;20097;-70
2022/11/13 12:38:09;;;;;;;6.47;5.38;;;;;;;13.78;61.70;101926.84;5264054;28;20033;-71
2022/11/13 12:40:52;;;;;;;7.15;6.53;;;;;;;13.74;61.28;101914.59;5264318;28;20028;-70
2022/11/13 12:43:32;;;;;;;6.65;6.00;;;;;;;13.75;61.43;101907.03;5264444;28;20121;-72
2022/11/13 12:46:08;;;;;;;5.70;5.00;;;;;;;13.77;60.73;101913.19;5261998;28;20082;-69
2022/11/13 12:48:42;;;;;;;6.30;5.70;;;;;;;13.81;60.71;101901.16;5269777;28;20050;-70
2022/11/13 12:51:17;;;;;;;7.38;5.82;;;;;;;13.84;60.68;101899.78;5264787;28;20411;-71
2022/11/13 12:53:51;;;;;;;7.60;6.90;;;;;;;13.87;61.02;101902.81;5265633;28;20468;-71
2022/11/13 12:56:28;;;;;;;6.47;5.88;;;;;;;13.89;60.66;101891.38;5267135;28;20029;-70
2022/11/13 12:59:12;;;;;;;7.35;5.93;;;;;;;13.87;61.02;101888.88;5263165;28;20082;-70
2022/11/13 13:01:55;;;;;;;5.75;5.25;;;;;;;13.97;60.92;101892.72;5263790;28;20071;-70
2022/11/13 13:04:43;;;;;;;6.40;4.40;;;;;;;13.97;61.04;101892.72;5265400;28;20667;-72
2022/11/13 13:07:46;;;;;;;6.88;5.22;;;;;;;14.01;61.24;101877.06;5261584;28;20130;-69
2022/11/13 13:10:44;;;;;;;5.35;4.85;;;;;;;14.01;61.03;101869.56;5264865;28;20112;-70
2022/11/13 13:13:52;;;;;;;6.25;5.20;;;;;;;14.02;62.34;101870.38;5264861;28;20013;-70
2022/11/13 13:16:25;;;;;;;4.75;4.35;;;;;;;14.02;62.45;101862.03;5258005;28;20116;-70
2022/11/13 13:19:27;;;;;;;5.45;4.72;;;;;;;14.07;60.17;101859.19;5264854;28;20017;-70
2022/11/13 13:21:58;;;;;;;8.02;6.05;;;;;;;14.16;58.61;101842.69;5262482;28;20075;-70
2022/11/13 13:24:33;;;;;;;7.13;6.20;;;;;;;14.18;60.21;101841.25;5266464;28;20410;-71
2022/11/13 13:27:23;;;;;;;6.00;5.05;;;;;;;14.26;58.17;101828.66;5264688;28;20035;-70
2022/11/13 13:29:57;;;;;;;5.80;5.20;;;;;;;14.36;56.78;101829.41;5264418;28;20013;-71
2022/11/13 13:32:52;;;;;;;4.85;4.35;;;;;;;14.45;57.21;101820.41;5266824;28;20048;-71
2022/11/13 13:35:53;;;;;;;5.40;4.22;;;;;;;14.53;57.60;101814.25;5265969;28;20013;-70
2022/11/13 13:38:36;;;;;;;6.38;4.30;;;;;;;14.62;57.68;101809.66;5262526;28;20078;-71
2022/11/13 13:41:16;;;;;;;4.25;3.75;;;;;;;14.71;57.15;101807.91;5262343;28;20033;-69
2022/11/13 13:44:20;;;;;;;3.40;3.10;;;;;;;14.77;56.32;101803.94;5263090;28;20109;-70
2022/11/13 13:46:51;;;;;;;5.13;3.80;;;;;;;14.89;57.21;101806.34;5263421;28;20033;-71
2022/11/13 13:49:24;;;;;;;4.03;3.60;;;;;;;14.89;55.32;101805.50;5264590;28;20345;-71
2022/11/13 13:51:57;;;;;;;5.03;3.13;;;;;;;14.98;54.70;101800.91;5264201;28;20028;-71
2022/11/13 13:54:31;;;;;;;6.95;5.53;;;;;;;14.99;53.37;101802.59;5266048;28;20353;-70
2022/11/13 13:57:02;;;;;;;4.15;3.75;;;;;;;15.04;54.35;101798.94;5264629;28;20040;-70
2022/11/13 13:59:36;;;;;;;3.97;3.58;;;;;;;15.15;54.31;101806.06;5263664;28;20100;-70
2022/11/13 14:02:21;;;;;;;4.30;3.80;;;;;;;15.23;54.39;101810.97;5261687;28;20029;-70
2022/11/13 14:04:53;;;;;;;4.18;3.78;;;;;;;15.20;54.01;101806.81;5261239;28;20045;-69
2022/11/13 14:07:34;;;;;;;4.88;3.60;;;;;;;15.26;55.61;101803.97;5262636;28;20025;-69
2022/11/13 14:10:17;;;;;;;4.13;3.15;;;;;;;15.19;53.73;101807.13;5262221;28;20033;-70
2022/11/13 14:12:48;;;;;;;45.33;40.75;;;;;;;15.30;54.59;101810.63;5261509;28;20033;-71
2022/11/13 14:15:27;;;;;;;6.38;5.15;;;;;;;15.35;55.15;101804.97;5259611;28;20373;-68
2022/11/13 14:18:05;;;;;;;4.47;3.38;;;;;;;15.27;55.46;101794.47;5262016;28;20071;-68
2022/11/13 14:20:50;;;;;;;4.70;3.90;;;;;;;15.21;54.94;101800.13;5265765;28;20422;-68
2022/11/13 14:23:33;;;;;;;4.57;3.70;;;;;;;15.16;54.81;101794.59;5247069;28;20029;-70
2022/11/13 14:26:06;;;;;;;5.72;3.75;;;;;;;15.14;55.06;101799.63;5261368;28;20464;-71
2022/11/13 14:28:56;;;;;;;5.40;3.40;;;;;;;15.04;54.46;101794.16;5253148;28;20251;-73
2022/11/13 14:31:33;;;;;;;6.93;3.50;;;;;;;14.97;55.10;101793.69;5258936;28;20101;-76
2022/11/13 14:34:12;;;;;;;6.07;4.03;;;;;;;14.95;55.35;101790.34;5247334;28;20032;-74
2022/11/13 14:36:47;;;;;;;4.88;3.75;;;;;;;14.92;54.76;101785.34;5239298;28;20076;-71
2022/11/13 14:39:29;;;;;;;5.22;4.30;;;;;;;14.85;56.05;101787.66;5238799;28;20025;-72
2022/11/13 14:42:00;;;;;;;5.32;4.80;;;;;;;14.78;55.25;101780.47;5236562;28;20030;-72
2022/11/13 14:44:33;;;;;;;4.93;4.43;;;;;;;14.67;54.98;101783.66;5236180;28;20052;-72
2022/11/13 14:47:22;;;;;;;8.57;7.63;;;;;;;14.53;55.14;101786.31;5237839;28;20500;-71
2022/11/13 14:49:53;;;;;;;4.05;3.60;;;;;;;14.48;55.45;101780.75;5242776;28;20025;-71
2022/11/13 14:52:27;;;;;;;5.30;3.88;;;;;;;14.45;56.63;101782.19;5259527;28;20025;-70
2022/11/13 14:55:04;;;;;;;5.28;4.30;;;;;;;14.40;57.79;101773.03;5260450;28;20021;-72
2022/11/13 14:57:46;;;;;;;6.57;4.15;;;;;;;14.34;58.95;101770.28;5261058;28;20036;-72
2022/11/13 15:00:26;;;;;;;4.53;4.00;;;;;;;14.31;59.17;101770.84;5261801;28;20021;-71
2022/11/13 15:02:58;;;;;;;6.47;5.40;;;;;;;14.20;59.63;101766.47;5261393;28;20388;-71
2022/11/13 15:05:30;;;;;;;6.63;5.78;;;;;;;14.13;60.53;101769.59;5261366;28;20134;-71
2022/11/13 15:08:01;;;;;;;6.95;6.25;;;;;;;14.13;60.58;101764.00;5246114;28;20478;-71
2022/11/13 15:10:32;;;;;;;8.98;8.07;;;;;;;14.12;61.04;101761.53;5240339;28;20049;-69
2022/11/13 15:13:12;;;;;;;7.40;6.32;;;;;;;14.07;61.19;101767.16;5240884;28;20033;-69
2022/11/13 15:15:43;;;;;;;9.15;6.60;;;;;;;14.02;62.11;101761.63;5241272;28;20038;-71
2022/11/13 15:18:20;;;;;;;6.85;6.15;;;;;;;13.86;62.95;101758.94;5240610;28;20025;-72
2022/11/13 15:20:52;;;;;;;7.18;6.28;;;;;;;13.84;63.29;101763.97;5254294;28;20103;-72
2022/11/13 15:23:25;;;;;;;8.55;6.20;;;;;;;13.74;64.34;101769.63;5259476;28;20032;-72
2022/11/13 15:25:56;;;;;;;6.35;5.75;;;;;;;13.68;65.11;101768.00;5240233;28;20033;-72
2022/11/13 15:28:27;;;;;;;7.88;5.68;;;;;;;13.68;65.67;101759.63;5245371;28;20041;-72
2022/11/13 15:30:59;;;;;;;7.13;4.95;;;;;;;13.55;66.11;101763.03;5244518;28;20096;-71
2022/11/13 15:33:30;;;;;;;5.68;4.95;;;;;;;13.44;66.53;101746.38;5248371;28;20480;-71
2022/11/13 15:36:01;;;;;;;6.22;5.18;;;;;;;13.49;66.47;101749.13;5265928;28;20025;-71
2022/11/13 15:38:33;;;;;;;5.68;5.03;;;;;;;13.40;67.04;101755.63;5249164;28;20036;-72
2022/11/13 15:41:13;;;;;;;8.20;6.30;;;;;;;13.39;66.80;101751.97;5252372;28;20112;-67
2022/11/13 15:43:49;;;;;;;5.72;5.05;;;;;;;13.37;66.47;101751.44;5265333;28;20071;-68
2022/11/13 15:46:23;;;;;;;5.63;5.10;;;;;;;13.27;66.70;101745.94;5264606;28;20033;-68
2022/11/13 15:48:54;;;;;;;6.45;5.70;;;;;;;13.22;66.68;101748.72;5265383;28;20112;-69
2022/11/13 15:51:39;;;;;;;6.90;5.43;;;;;;;13.22;67.38;101737.56;5265318;28;20084;-71
2022/11/13 15:54:33;;;;;;;10.48;8.63;;;;;;;13.07;67.36;101729.28;5264535;28;20052;-71
2022/11/13 15:57:06;;;;;;;8.10;7.25;;;;;;;12.98;68.00;101729.84;5264257;28;20512;-71
2022/11/13 15:59:40;;;;;;;8.57;7.65;;;;;;;13.02;67.80;101717.03;5244124;28;20041;-71
2022/11/13 16:02:12;;;;;;;8.40;7.40;;;;;;;12.99;67.35;101717.59;5244266;28;20062;-72
2022/11/13 16:04:52;;;;;;;8.75;6.70;;;;;;;12.97;67.43;101714.28;5244433;28;20154;-71
2022/11/13 16:07:29;;;;;;;9.48;7.97;;;;;;;12.90;67.53;101708.16;5243518;28;20021;-71
2022/11/13 16:10:01;;;;;;;8.02;6.22;;;;;;;12.80;67.19;101709.03;5244422;28;20075;-71
2022/11/13 16:12:32;;;;;;;6.18;5.57;;;;;;;12.80;67.73;101713.78;5244282;28;20025;-71
2022/11/13 16:15:04;;;;;;;9.07;5.75;;;;;;;12.76;67.52;101707.13;5243952;28;20026;-71
2022/11/13 16:17:44;;;;;;;9.40;6.18;;;;;;;12.68;67.86;101700.19;5244141;28;20025;-71
2022/11/13 16:20:16;;;;;;;7.55;6.50;;;;;;;12.59;67.53;101691.56;5251899;28;20031;-71
2022/11/13 16:22:48;;;;;;;10.10;7.90;;;;;;;12.45;68.07;101692.44;5264691;28;20033;-71
2022/11/13 16:25:21;;;;;;;9.52;6.43;;;;;;;12.34;68.67;101691.63;5264874;28;20365;-71
2022/11/13 16:27:52;;;;;;;8.85;6.90;;;;;;;12.31;68.73;101694.97;5264484;28;20427;-71
2022/11/13 16:30:24;;;;;;;9.40;8.02;;;;;;;12.22;68.40;101702.22;5264319;28;20025;-70
2022/11/13 16:32:55;;;;;;;9.18;7.50;;;;;;;12.21;69.15;101695.00;5264403;28;20099;-71
2022/11/13 16:35:29;;;;;;;10.63;8.00;;;;;;;12.21;69.19;101695.81;5263830;28;20041;-70
